Time;durP1;ratioP1;P1;durP2;ratioP2;P2;SDS_P1;SDS_P2;PMS_P1;PMS_P2;Temp;Humidity;BMP_temperature;BMP_pressure;BME280_temperature;BME280_humidity;BME280_pressure;Samples;Min_cycle;Max_cycle;Signal;HPM_P1;HPM_P2
2023/03/18 07:15:44;;;;;;;;;;;;;;;8.66;67.76;97802.06;6204622;22;20646;31
2023/03/18 07:18:10;;;;;;;;;;;;;;;8.73;66.06;97811.19;6124202;23;20358;-63
2023/03/18 07:20:35;;;;;;;;;;;;;;;8.77;66.05;97807.44;6125062;23;19996;-63
2023/03/18 07:23:01;;;;;;;;;;;;;;;8.79;65.57;97813.38;6097681;23;19995;-63
2023/03/18 07:25:26;;;;;;;;;;;;;;;8.85;66.44;97817.38;6122749;23;19913;-63
2023/03/18 07:27:52;;;;;;;;;;;;;;;8.91;66.51;97818.72;6125153;23;19908;-63
2023/03/18 07:30:17;;;;;;;;;;;;;;;8.93;65.77;97817.69;6124943;23;19909;-63
2023/03/18 07:32:44;;;;;;;;;;;;;;;9.00;65.17;97828.56;6124798;23;20292;-63
2023/03/18 07:35:10;;;;;;;;;;;;;;;9.01;65.14;97827.63;6124745;23;19979;-64
2023/03/18 07:37:35;;;;;;;;;;;;;;;9.07;64.86;97832.44;6124780;23;19928;-64
2023/03/18 07:40:01;;;;;;;;;;;;;;;9.11;64.46;97825.22;6098847;23;20359;-64
2023/03/18 07:42:27;;;;;;;;;;;;;;;9.17;64.75;97827.41;6124735;23;20332;-64
2023/03/18 07:44:52;;;;;;;;;;;;;;;9.23;64.87;97833.06;6124516;23;19984;-64
2023/03/18 07:47:19;;;;;;;;;;;;;;;9.29;64.73;97834.44;6124815;23;19947;-63
2023/03/18 07:49:44;;;;;;;;;;;;;;;9.32;64.05;97830.75;6098748;23;19909;-63
2023/03/18 07:52:10;;;;;;;;;;;;;;;9.41;65.02;97835.34;6124805;23;19909;-64
2023/03/18 07:54:35;;;;;;;;;;;;;;;9.49;64.54;97840.88;6124400;23;19924;-63
2023/03/18 07:57:00;;;;;;;;;;;;;;;9.58;63.54;97837.63;6125025;23;19995;-64
2023/03/18 07:59:26;;;;;;;;;;;;;;;9.66;63.70;97840.53;6124482;23;19968;-63
2023/03/18 08:01:51;;;;;;;;;;;;;;;9.74;63.75;97845.25;6097200;23;19912;-63
2023/03/18 08:04:18;;;;;;;;;;;;;;;9.80;63.62;97841.34;6123532;23;19909;-63
2023/03/18 08:06:43;;;;;;;;;;;;;;;9.86;63.49;97844.38;6122934;23;19908;-63
2023/03/18 08:09:09;;;;;;;;;;;;;;;9.93;63.26;97842.16;6097815;23;19963;-63
2023/03/18 08:11:35;;;;;;;;;;;;;;;9.99;63.65;97839.09;6124346;23;20292;-63
2023/03/18 08:14:00;;;;;;;;;;;;;;;10.03;62.99;97845.78;6124410;23;20336;-63
2023/03/18 08:16:26;;;;;;;;;;;;;;;10.06;61.80;97845.56;6137243;23;19917;-63
2023/03/18 08:18:51;;;;;;;;;;;;;;;10.09;62.16;97845.34;6153664;23;19995;-63
2023/03/18 08:21:17;;;;;;;;;;;;;;;10.17;62.07;97853.47;6126724;23;19918;-63
2023/03/18 08:23:42;;;;;;;;;;;;;;;10.24;62.06;97856.50;6127354;23;20246;-63
2023/03/18 08:26:08;;;;;;;;;;;;;;;10.22;59.94;97856.63;6154187;23;19982;-66
2023/03/18 08:28:33;;;;;;;;;;;;;;;10.20;60.41;97845.38;6153751;23;19909;-67
2023/03/18 08:30:58;;;;;;;;;;;;;;;10.20;59.74;97850.63;6154149;23;20371;-66
2023/03/18 08:33:24;;;;;;;;;;;;;;;10.18;60.33;97849.91;6153373;23;20472;-67
2023/03/18 08:35:50;;;;;;;;;;;;;;;10.19;61.26;97848.97;6126971;23;20388;-66
2023/03/18 08:38:16;;;;;;;;;;;;;;;10.20;61.37;97849.81;6154162;23;19909;-65
2023/03/18 08:40:41;;;;;;;;;;;;;;;10.18;60.76;97844.66;6153237;23;19924;-67
2023/03/18 08:43:06;;;;;;;;;;;;;;;10.26;61.00;97856.44;6127713;23;19916;-65
2023/03/18 08:45:32;;;;;;;;;;;;;;;10.32;61.08;97861.19;6151752;23;19944;-65
2023/03/18 08:47:58;;;;;;;;;;;;;;;10.36;61.13;97860.06;6153140;23;19936;-66
2023/03/18 08:50:27;;;;;;;;;;;;;;;10.44;60.89;97852.44;6152696;23;19928;-66
2023/03/18 08:52:52;;;;;;;;;;;;;;;10.52;60.94;97852.72;6127255;23;19916;-65
2023/03/18 08:55:20;;;;;;;;;;;;;;;10.60;60.58;97855.63;6126418;23;19913;-66
2023/03/18 08:57:46;;;;;;;;;;;;;;;10.67;60.51;97859.47;6153601;23;19909;-65
2023/03/18 09:00:12;;;;;;;;;;;;;;;10.79;60.90;97862.09;6128400;23;19916;-65
2023/03/18 09:02:37;;;;;;;;;;;;;;;10.88;60.16;97856.19;6129745;23;19963;-65
2023/03/18 09:05:02;;;;;;;;;;;;;;;11.00;60.06;97851.78;6155523;23;19915;-66
2023/03/18 09:07:28;;;;;;;;;;;;;;;11.13;60.37;97845.47;6155429;23;19955;-66
2023/03/18 09:09:53;;;;;;;;;;;;;;;11.27;59.60;97846.22;6129986;23;19909;-66
2023/03/18 09:12:18;;;;;;;;;;;;;;;11.37;59.33;97853.25;6155971;23;19914;-66
2023/03/18 09:14:44;;;;;;;;;;;;;;;11.53;60.01;97841.59;6155728;23;19908;-66
2023/03/18 09:17:09;;;;;;;;;;;;;;;11.65;61.21;97841.44;6153974;23;19920;-66
2023/03/18 09:19:35;;;;;;;;;;;;;;;11.82;62.05;97834.84;6129403;23;19917;-66
2023/03/18 09:22:00;;;;;;;;;;;;;;;12.02;60.58;97835.09;6129558;23;20027;-66
2023/03/18 09:24:25;;;;;;;;;;;;;;;12.21;61.17;97837.06;6154268;23;20363;-65
2023/03/18 09:26:51;;;;;;;;;;;;;;;12.34;58.65;97829.84;6127865;23;20344;-64
2023/03/18 09:29:16;;;;;;;;;;;;;;;12.43;57.81;97826.47;6128800;23;19908;-64
2023/03/18 09:31:41;;;;;;;;;;;;;;;12.63;59.10;97831.88;6105064;23;20011;-64
2023/03/18 09:34:07;;;;;;;;;;;;;;;12.78;58.84;97828.81;6154463;23;19936;-65
2023/03/18 09:36:32;;;;;;;;;;;;;;;12.97;58.43;97836.00;6154114;23;20248;-65
2023/03/18 09:38:59;;;;;;;;;;;;;;;13.23;59.31;97835.59;6155385;23;19943;-66
2023/03/18 09:41:24;;;;;;;;;;;;;;;13.47;58.16;97827.41;6155431;23;19951;-65
2023/03/18 09:44:08;;;;;;;;;;;;;;;13.73;58.27;97831.25;6154800;23;19916;-66
2023/03/18 09:46:34;;;;;;;;;;;;;;;13.98;56.46;97827.31;6154914;23;19982;-65
2023/03/18 09:49:04;;;;;;;;;;;;;;;14.24;56.38;97832.03;6155436;23;20313;-66
2023/03/18 09:51:36;;;;;;;;;;;;;;;14.45;52.27;97830.13;6129771;23;19987;-66
2023/03/18 09:54:02;;;;;;;;;;;;;;;14.67;52.98;97833.50;6155167;23;20341;-66
2023/03/18 09:56:28;;;;;;;;;;;;;;;14.94;54.08;97830.97;6155015;23;20328;-65
2023/03/18 09:58:58;;;;;;;;;;;;;;;15.25;54.32;97830.75;6104103;23;19909;-66
2023/03/18 10:01:24;;;;;;;;;;;;;;;15.49;50.11;97840.84;6129257;23;19916;-65
2023/03/18 10:03:50;;;;;;;;;;;;;;;15.73;50.68;97827.13;6129197;23;19932;-66
2023/03/18 10:06:17;;;;;;;;;;;;;;;15.97;48.90;97831.03;6105050;23;19935;-66
2023/03/18 10:08:57;;;;;;;;;;;;;;;16.14;46.88;97830.25;6127986;23;19921;-66
2023/03/18 10:11:28;;;;;;;;;;;;;;;16.33;47.35;97829.25;6155021;23;20023;-66
2023/03/18 10:13:56;;;;;;;;;;;;;;;16.43;44.16;97831.84;6128069;23;20356;-66
2023/03/18 10:16:22;;;;;;;;;;;;;;;16.56;45.68;97830.47;6134826;23;19984;-66
2023/03/18 10:18:47;;;;;;;;;;;;;;;16.83;46.46;97831.41;6152486;23;19909;-67
2023/03/18 10:21:25;;;;;;;;;;;;;;;17.13;45.37;97830.09;6154856;23;20261;-66
2023/03/18 10:23:50;;;;;;;;;;;;;;;17.40;44.70;97828.28;6154943;23;19939;-66
2023/03/18 10:26:42;;;;;;;;;;;;;;;17.62;41.40;97827.75;6153607;23;20252;-66
2023/03/18 10:29:27;;;;;;;;;;;;;;;17.87;40.05;97822.56;6092495;23;19910;-66
2023/03/18 10:32:10;;;;;;;;;;;;;;;18.18;41.54;97821.00;6093205;23;19960;-66
2023/03/18 10:34:48;;;;;;;;;;;;;;;18.49;39.67;97820.41;6069296;23;19910;-67
2023/03/18 10:37:13;;;;;;;;;;;;;;;18.86;40.73;97819.13;6069003;23;19914;-67
2023/03/18 10:39:38;;;;;;;;;;;;;;;19.17;40.49;97814.75;6092766;23;19940;-67
2023/03/18 10:42:14;;;;;;;;;;;;;;;19.57;39.06;97810.31;6069119;23;19909;-67
2023/03/18 10:44:40;;;;;;;;;;;;;;;19.93;37.70;97804.56;6069044;23;19916;-67
2023/03/18 10:47:10;;;;;;;;;;;;;;;20.29;37.46;97798.69;6068671;23;19909;-67
2023/03/18 10:49:39;;;;;;;;;;;;;;;20.64;37.41;97791.97;6069255;23;19992;-67
2023/03/18 10:52:18;;;;;;;;;;;;;;;20.95;35.50;97801.69;6068840;23;19932;-66
2023/03/18 10:54:49;;;;;;;;;;;;;;;21.30;37.26;97785.03;6093210;23;19937;-66
2023/03/18 10:57:14;;;;;;;;;;;;;;;21.71;36.40;97791.75;6069889;23;19913;-66
2023/03/18 10:59:43;;;;;;;;;;;;;;;22.04;34.57;97787.63;6093142;23;19980;-67
2023/03/18 11:02:11;;;;;;;;;;;;;;;22.32;31.59;97791.47;6068738;23;20372;-67
2023/03/18 11:04:41;;;;;;;;;;;;;;;22.57;30.54;97794.56;6092950;23;19910;-67
2023/03/18 11:07:06;;;;;;;;;;;;;;;22.90;32.65;97789.53;6127074;23;19908;-67
2023/03/18 11:09:32;;;;;;;;;;;;;;;23.25;31.94;97785.06;6154667;23;20336;-67
2023/03/18 11:12:05;;;;;;;;;;;;;;;23.53;31.38;97773.50;6151008;23;19955;-67
2023/03/18 11:14:30;;;;;;;;;;;;;;;23.89;31.42;97778.66;6151872;23;19913;-68
2023/03/18 11:16:56;;;;;;;;;;;;;;;24.18;30.75;97777.50;6151971;23;20240;-67
2023/03/18 11:19:22;;;;;;;;;;;;;;;24.33;29.58;97774.66;6153549;23;19912;-68
2023/03/18 11:21:47;;;;;;;;;;;;;;;24.62;29.15;97774.31;6152906;23;19931;-67
2023/03/18 11:24:35;;;;;;;;;;;;;;;24.77;28.07;97766.06;6152463;23;19908;-68
2023/03/18 11:27:00;;;;;;;;;;;;;;;25.11;29.03;97769.59;6131833;23;19909;-67
2023/03/18 11:29:26;;;;;;;;;;;;;;;25.37;27.69;97765.22;6153034;23;19908;-67
2023/03/18 11:31:53;;;;;;;;;;;;;;;25.56;27.64;97767.00;6152548;23;19909;-67
2023/03/18 11:34:18;;;;;;;;;;;;;;;25.06;26.13;97766.69;6154404;23;19932;-67
2023/03/18 11:36:51;;;;;;;;;;;;;;;25.29;27.10;97769.78;6152270;23;19959;-67
2023/03/18 11:39:16;;;;;;;;;;;;;;;25.24;25.26;97766.88;6152195;23;19908;-67
2023/03/18 11:41:42;;;;;;;;;;;;;;;24.78;25.29;97757.00;6154988;23;19936;-67
2023/03/18 11:44:14;;;;;;;;;;;;;;;25.00;26.45;97762.16;6153069;23;19908;-67
2023/03/18 11:46:41;;;;;;;;;;;;;;;25.42;28.40;97757.34;6153267;23;19908;-67
2023/03/18 11:49:08;;;;;;;;;;;;;;;25.82;26.98;97749.19;6152753;23;19916;-67
2023/03/18 11:51:45;;;;;;;;;;;;;;;26.10;25.64;97754.22;6128841;23;20321;-67
2023/03/18 11:54:13;;;;;;;;;;;;;;;26.25;25.09;97746.66;6154385;23;19983;-67
2023/03/18 11:56:41;;;;;;;;;;;;;;;26.57;26.41;97739.47;6153166;23;20329;-67
2023/03/18 11:59:06;;;;;;;;;;;;;;;26.82;25.25;97742.16;6152712;23;19923;-67
2023/03/18 12:01:54;;;;;;;;;;;;;;;27.07;23.59;97738.63;6152807;23;19917;-67
2023/03/18 12:04:32;;;;;;;;;;;;;;;27.51;26.49;97732.16;6152727;23;19908;-67
2023/03/18 12:07:07;;;;;;;;;;;;;;;27.66;22.65;97737.16;6154512;23;19909;-67
2023/03/18 12:09:52;;;;;;;;;;;;;;;27.43;22.56;97732.47;6154134;23;19920;-67
2023/03/18 12:12:26;;;;;;;;;;;;;;;27.65;22.58;97719.38;6153019;23;20252;-67
2023/03/18 12:14:57;;;;;;;;;;;;;;;27.28;22.05;97721.25;6152898;23;19915;-67
2023/03/18 12:17:22;;;;;;;;;;;;;;;26.86;22.58;97729.09;6152344;23;20249;-66
2023/03/18 12:19:58;;;;;;;;;;;;;;;26.88;22.54;97718.94;6154548;23;20317;-67
2023/03/18 12:22:41;;;;;;;;;;;;;;;27.34;23.07;97713.09;6153125;23;20325;-67
2023/03/18 12:25:16;;;;;;;;;;;;;;;28.03;23.96;97705.63;6152756;23;20392;-67
2023/03/18 12:27:41;;;;;;;;;;;;;;;28.62;22.98;97703.09;6154014;23;20408;-67
2023/03/18 12:30:10;;;;;;;;;;;;;;;28.93;21.60;97699.22;6154429;23;19912;-67
2023/03/18 12:32:48;;;;;;;;;;;;;;;29.22;21.71;97707.47;6153109;23;19987;-67
2023/03/18 12:35:14;;;;;;;;;;;;;;;28.73;20.68;97706.84;6152862;23;19909;-67
2023/03/18 12:37:39;;;;;;;;;;;;;;;28.70;21.19;97701.91;6156038;23;19909;-67
2023/03/18 12:40:05;;;;;;;;;;;;;;;28.82;20.58;97700.06;6156335;23;20386;-67
2023/03/18 12:42:36;;;;;;;;;;;;;;;28.91;20.25;97701.38;6156431;23;19916;-67
2023/03/18 12:45:02;;;;;;;;;;;;;;;28.74;20.60;97693.16;6154539;23;19909;-67
2023/03/18 12:47:29;;;;;;;;;;;;;;;28.11;21.20;97694.53;6154338;23;19908;-67
2023/03/18 12:49:54;;;;;;;;;;;;;;;28.42;20.92;97692.63;6154709;23;19908;-67
2023/03/18 12:52:26;;;;;;;;;;;;;;;28.51;20.56;97693.94;6156303;23;19908;-67
2023/03/18 12:55:02;;;;;;;;;;;;;;;28.65;20.00;97696.41;6129993;23;19908;-67
2023/03/18 12:57:47;;;;;;;;;;;;;;;28.76;19.92;97693.72;6155873;23;20272;-67
2023/03/18 13:00:22;;;;;;;;;;;;;;;28.89;20.36;97692.66;6156060;23;19916;-67
2023/03/18 13:02:51;;;;;;;;;;;;;;;28.74;20.51;97698.53;6154621;23;19912;-67
2023/03/18 13:05:19;;;;;;;;;;;;;;;29.19;19.76;97692.56;6156345;23;20386;-67
2023/03/18 13:07:46;;;;;;;;;;;;;;;29.29;18.80;97691.97;6154349;23;20343;-67
2023/03/18 13:10:14;;;;;;;;;;;;;;;29.68;18.76;97692.25;6154536;23;19975;-67
2023/03/18 13:12:40;;;;;;;;;;;;;;;30.03;18.77;97681.28;6154456;23;19916;-67
2023/03/18 13:15:07;;;;;;;;;;;;;;;29.92;18.85;97691.09;6154368;23;19908;-67
2023/03/18 13:17:43;;;;;;;;;;;;;;;29.70;18.62;97682.84;6155532;23;19927;-67
2023/03/18 13:20:13;;;;;;;;;;;;;;;30.06;18.61;97680.81;6130260;23;20252;-67
2023/03/18 13:22:41;;;;;;;;;;;;;;;30.50;18.93;97681.84;6130226;23;20005;-67
2023/03/18 13:25:07;;;;;;;;;;;;;;;29.98;18.42;97689.31;6155795;23;19909;-67
2023/03/18 13:27:40;;;;;;;;;;;;;;;30.32;19.08;97682.09;6155835;23;19916;-67
2023/03/18 13:30:05;;;;;;;;;;;;;;;30.55;18.93;97680.28;6129850;23;19909;-67
2023/03/18 13:32:43;;;;;;;;;;;;;;;30.74;18.08;97676.28;6129658;23;19953;-67
2023/03/18 13:35:19;;;;;;;;;;;;;;;31.13;17.92;97673.59;6156057;23;19908;-67
2023/03/18 13:38:03;;;;;;;;;;;;;;;31.47;17.79;97670.81;6129889;23;19915;-67
2023/03/18 13:40:37;;;;;;;;;;;;;;;31.88;17.17;97678.38;6155210;23;20244;-67
2023/03/18 13:43:02;;;;;;;;;;;;;;;32.34;16.45;97667.94;6155699;23;19963;-67
2023/03/18 13:45:32;;;;;;;;;;;;;;;32.41;16.35;97666.91;6155479;23;19912;-67
2023/03/18 13:48:15;;;;;;;;;;;;;;;32.25;16.54;97666.81;6155157;23;19932;-67
2023/03/18 13:50:41;;;;;;;;;;;;;;;32.32;16.55;97659.25;6129475;23;20313;-67
2023/03/18 13:53:25;;;;;;;;;;;;;;;32.63;16.28;97659.53;6129810;23;19916;-67
2023/03/18 13:55:50;;;;;;;;;;;;;;;33.15;16.65;97660.69;6155581;23;19908;-67
2023/03/18 13:58:20;;;;;;;;;;;;;;;32.99;16.49;97659.78;6155598;23;19940;-67
2023/03/18 14:00:54;;;;;;;;;;;;;;;32.54;16.92;97655.66;6154870;23;20329;-67
2023/03/18 14:03:21;;;;;;;;;;;;;;;31.82;16.69;97654.13;6128948;23;19908;-67
2023/03/18 14:05:50;;;;;;;;;;;;;;;30.80;17.63;97664.50;6155012;23;19909;-67
2023/03/18 14:08:34;;;;;;;;;;;;;;;30.25;18.93;97657.09;6129368;23;19932;-66
2023/03/18 14:11:24;;;;;;;;;;;;;;;29.18;18.99;97655.84;6154894;23;19909;-67
2023/03/18 14:13:49;;;;;;;;;;;;;;;28.97;19.44;97662.63;6155246;23;19908;-66
2023/03/18 14:16:19;;;;;;;;;;;;;;;28.33;19.84;97656.25;6134799;23;19983;-67
2023/03/18 14:18:51;;;;;;;;;;;;;;;28.23;20.83;97656.81;6155386;23;19983;-67
2023/03/18 14:21:27;;;;;;;;;;;;;;;28.03;20.74;97651.72;6153372;23;19913;-67
2023/03/18 14:24:11;;;;;;;;;;;;;;;27.80;20.46;97651.63;6153737;23;19912;-66
2023/03/18 14:26:37;;;;;;;;;;;;;;;27.16;21.13;97651.19;6155474;23;19910;-66
2023/03/18 14:29:05;;;;;;;;;;;;;;;27.09;21.96;97656.63;6155222;23;19919;-67
2023/03/18 14:31:31;;;;;;;;;;;;;;;27.16;22.80;97657.38;6154614;23;19916;-66
2023/03/18 14:33:58;;;;;;;;;;;;;;;26.93;21.56;97651.81;6153579;23;19931;-67
2023/03/18 14:36:43;;;;;;;;;;;;;;;26.92;21.82;97650.19;6155169;23;19909;-66
2023/03/18 14:39:10;;;;;;;;;;;;;;;28.22;21.63;97643.53;6155284;23;19931;-66
2023/03/18 14:41:36;;;;;;;;;;;;;;;28.11;20.45;97643.31;6153211;23;19912;-67
2023/03/18 14:44:22;;;;;;;;;;;;;;;27.95;20.42;97641.28;6152573;23;19919;-66
2023/03/18 14:46:52;;;;;;;;;;;;;;;27.71;21.27;97634.97;6154571;23;19909;-66
2023/03/18 14:49:20;;;;;;;;;;;;;;;26.91;20.72;97645.81;6128922;23;19915;-66
2023/03/18 14:51:45;;;;;;;;;;;;;;;26.08;21.80;97644.25;6155072;23;20263;-66
2023/03/18 14:54:13;;;;;;;;;;;;;;;25.63;22.57;97646.16;6152808;23;19908;-66
2023/03/18 14:56:39;;;;;;;;;;;;;;;25.30;22.72;97641.78;6153486;23;19992;-66
2023/03/18 14:59:04;;;;;;;;;;;;;;;25.05;23.25;97638.91;6153484;23;19916;-66
2023/03/18 15:01:36;;;;;;;;;;;;;;;24.83;23.45;97636.50;6128678;23;19912;-66
2023/03/18 15:04:02;;;;;;;;;;;;;;;24.62;24.70;97640.25;6154377;23;19912;-66
2023/03/18 15:06:28;;;;;;;;;;;;;;;24.45;24.14;97635.53;6153425;23;20088;-66
2023/03/18 15:08:57;;;;;;;;;;;;;;;24.14;24.49;97639.63;6153494;23;20284;-66
2023/03/18 15:11:23;;;;;;;;;;;;;;;24.06;25.05;97639.84;6153366;23;19920;-66
2023/03/18 15:13:48;;;;;;;;;;;;;;;24.13;24.84;97628.09;6152707;23;20296;-66
2023/03/18 15:16:16;;;;;;;;;;;;;;;24.50;24.24;97633.03;6128189;23;19913;-66
2023/03/18 15:18:42;;;;;;;;;;;;;;;24.36;24.33;97632.19;6128801;23;19908;-66
2023/03/18 15:21:09;;;;;;;;;;;;;;;24.40;24.31;97636.16;6152931;23;19928;-66
2023/03/18 15:23:44;;;;;;;;;;;;;;;25.16;23.89;97632.94;6127977;23;19909;-66
2023/03/18 15:26:17;;;;;;;;;;;;;;;25.50;23.91;97630.97;6153140;23;19932;-66
2023/03/18 15:28:45;;;;;;;;;;;;;;;25.94;23.37;97626.56;6151295;23;19920;-66
2023/03/18 15:31:10;;;;;;;;;;;;;;;25.64;24.33;97627.16;6153295;23;19909;-67
2023/03/18 15:33:36;;;;;;;;;;;;;;;24.96;24.67;97630.28;6152503;23;19916;-66
2023/03/18 15:36:13;;;;;;;;;;;;;;;24.53;25.12;97627.28;6154669;23;19948;-66
2023/03/18 15:38:44;;;;;;;;;;;;;;;24.17;24.47;97636.53;6152654;23;19991;-66
2023/03/18 15:41:10;;;;;;;;;;;;;;;23.86;25.56;97637.94;6153049;23;20305;-66
2023/03/18 15:43:45;;;;;;;;;;;;;;;23.89;25.01;97632.19;6152872;23;19953;-66
2023/03/18 15:46:15;;;;;;;;;;;;;;;23.44;25.01;97636.38;6152655;23;19972;-66
2023/03/18 15:48:46;;;;;;;;;;;;;;;23.44;25.12;97633.69;6154260;23;19959;-66
2023/03/18 15:51:41;;;;;;;;;;;;;;;23.39;24.84;97636.97;6153149;23;19909;-66
2023/03/18 15:54:36;;;;;;;;;;;;;;;23.25;25.51;97632.59;6092226;23;19948;-66
2023/03/18 15:57:01;;;;;;;;;;;;;;;23.22;25.72;97616.94;5979016;23;19946;-66
2023/03/18 15:59:29;;;;;;;;;;;;;;;23.03;25.80;97623.03;5978442;24;19918;-66
2023/03/18 16:01:55;;;;;;;;;;;;;;;22.67;27.30;97614.16;5978646;24;19966;-66
2023/03/18 16:04:21;;;;;;;;;;;;;;;22.31;27.79;97619.66;5978519;24;19997;-66
2023/03/18 16:06:46;;;;;;;;;;;;;;;22.08;28.17;97617.19;5979049;23;19931;-66
2023/03/18 16:09:13;;;;;;;;;;;;;;;21.90;28.83;97616.81;5978803;24;19971;-66
2023/03/18 16:11:38;;;;;;;;;;;;;;;21.71;29.11;97619.13;5981631;24;19911;-66
2023/03/18 16:14:03;;;;;;;;;;;;;;;21.56;29.79;97619.16;5980240;24;19918;-66
2023/03/18 16:16:29;;;;;;;;;;;;;;;21.32;30.13;97616.81;5981690;23;19962;-66
2023/03/18 16:18:56;;;;;;;;;;;;;;;21.12;29.91;97626.41;5980916;24;20382;-66
2023/03/18 16:21:22;;;;;;;;;;;;;;;20.96;30.23;97622.94;5980376;24;19919;-65
2023/03/18 16:23:47;;;;;;;;;;;;;;;20.74;30.42;97627.34;5979548;24;19918;-66
2023/03/18 16:26:15;;;;;;;;;;;;;;;20.53;30.58;97622.72;5958510;24;19910;-66
2023/03/18 16:28:41;;;;;;;;;;;;;;;20.35;31.75;97633.69;5981950;24;19914;-66
2023/03/18 16:31:06;;;;;;;;;;;;;;;20.17;32.13;97635.88;6024407;23;19945;-66
2023/03/18 16:33:32;;;;;;;;;;;;;;;19.95;32.43;97637.53;6090161;23;20356;-65
2023/03/18 16:35:58;;;;;;;;;;;;;;;19.72;32.50;97642.00;6155788;23;19943;-66
2023/03/18 16:38:24;;;;;;;;;;;;;;;19.55;33.46;97644.78;6155952;23;19912;-66
2023/03/18 16:40:50;;;;;;;;;;;;;;;19.37;33.39;97638.88;6156067;23;19913;-66
2023/03/18 16:43:16;;;;;;;;;;;;;;;19.21;33.48;97640.63;6155469;23;19908;-66
2023/03/18 16:45:41;;;;;;;;;;;;;;;19.05;34.21;97646.00;6155816;23;19913;-66
2023/03/18 16:48:08;;;;;;;;;;;;;;;18.93;34.65;97652.72;6157590;23;19909;-66
2023/03/18 16:50:37;;;;;;;;;;;;;;;18.85;35.00;97655.38;6155973;23;19908;-66
2023/03/18 16:53:09;;;;;;;;;;;;;;;18.68;35.11;97655.38;6156049;23;19909;-65
2023/03/18 16:55:34;;;;;;;;;;;;;;;18.58;35.55;97665.38;6155699;23;20340;-66
2023/03/18 16:58:00;;;;;;;;;;;;;;;18.42;36.03;97660.09;6155839;23;19916;-65
2023/03/18 17:00:30;;;;;;;;;;;;;;;18.26;36.48;97661.75;6131103;23;19912;-65
2023/03/18 17:02:55;;;;;;;;;;;;;;;18.08;37.13;97657.63;6156080;23;19916;-66
2023/03/18 17:05:21;;;;;;;;;;;;;;;17.93;37.78;97658.28;6130871;23;19912;-66
2023/03/18 17:07:46;;;;;;;;;;;;;;;17.81;38.28;97664.06;6156280;23;20289;-66
2023/03/18 17:10:12;;;;;;;;;;;;;;;17.62;38.78;97662.50;6155443;23;19958;-66
2023/03/18 17:12:37;;;;;;;;;;;;;;;17.49;39.51;97660.31;6157294;23;19909;-66
2023/03/18 17:15:03;;;;;;;;;;;;;;;17.35;39.82;97666.25;6157038;23;19920;-65
2023/03/18 17:17:32;;;;;;;;;;;;;;;17.21;39.57;97660.56;6155624;23;19912;-66
2023/03/18 17:19:58;;;;;;;;;;;;;;;17.06;39.56;97670.09;6131108;23;19913;-66
2023/03/18 17:22:27;;;;;;;;;;;;;;;16.93;40.40;97669.69;6152847;23;19917;-66
2023/03/18 17:24:53;;;;;;;;;;;;;;;16.77;40.62;97673.94;6155138;23;19912;-66
2023/03/18 17:27:29;;;;;;;;;;;;;;;16.66;41.16;97682.13;6155688;23;19909;-66
2023/03/18 17:29:54;;;;;;;;;;;;;;;16.55;41.12;97674.41;6153361;23;19955;-65
2023/03/18 17:32:21;;;;;;;;;;;;;;;16.44;41.20;97677.34;6153738;23;20325;-65
2023/03/18 17:34:47;;;;;;;;;;;;;;;16.35;41.47;97674.63;6154931;23;19909;-66
2023/03/18 17:37:12;;;;;;;;;;;;;;;16.26;42.04;97675.56;6154127;23;20024;-65
2023/03/18 17:39:38;;;;;;;;;;;;;;;16.13;42.39;97675.94;6150560;23;19951;-65
2023/03/18 17:42:03;;;;;;;;;;;;;;;16.08;43.06;97680.03;6154424;23;19908;-65
2023/03/18 17:44:28;;;;;;;;;;;;;;;16.00;43.87;97685.25;6155414;23;19913;-65
2023/03/18 17:46:54;;;;;;;;;;;;;;;15.88;44.07;97682.84;6129408;23;20325;-65
2023/03/18 17:49:20;;;;;;;;;;;;;;;15.78;44.43;97676.78;6154285;23;20159;-65
2023/03/18 17:51:47;;;;;;;;;;;;;;;15.69;44.28;97683.00;6153764;23;19984;-66
2023/03/18 17:54:12;;;;;;;;;;;;;;;15.63;44.71;97684.38;6153233;23;19908;-65
2023/03/18 17:56:39;;;;;;;;;;;;;;;15.52;45.07;97687.25;6153207;23;19943;-65
2023/03/18 17:59:04;;;;;;;;;;;;;;;15.46;44.82;97677.25;6150344;23;19992;-65
2023/03/18 18:01:29;;;;;;;;;;;;;;;15.38;44.79;97680.66;6153310;23;19952;-65
2023/03/18 18:03:55;;;;;;;;;;;;;;;15.32;45.02;97681.25;6151852;23;19908;-65
2023/03/18 18:06:24;;;;;;;;;;;;;;;15.29;45.52;97686.81;6153119;23;19912;-65
2023/03/18 18:08:50;;;;;;;;;;;;;;;15.21;46.06;97686.72;6151654;23;19909;-65
2023/03/18 18:11:23;;;;;;;;;;;;;;;15.15;46.13;97685.50;6153517;23;19916;-65
2023/03/18 18:13:48;;;;;;;;;;;;;;;15.10;46.20;97679.81;6154221;23;19909;-65
2023/03/18 18:16:13;;;;;;;;;;;;;;;15.05;46.95;97689.16;6153296;23;19913;-65
2023/03/18 18:18:39;;;;;;;;;;;;;;;14.99;47.02;97684.47;6151226;23;19908;-65
2023/03/18 18:21:04;;;;;;;;;;;;;;;14.93;47.31;97680.56;6152974;23;19995;-65
2023/03/18 18:23:31;;;;;;;;;;;;;;;14.86;48.26;97685.59;6153095;23;19944;-65
2023/03/18 18:25:57;;;;;;;;;;;;;;;14.81;48.71;97687.03;6155097;23;19912;-65
2023/03/18 18:28:23;;;;;;;;;;;;;;;14.62;49.25;97678.19;6153304;23;19944;-65
2023/03/18 18:30:48;;;;;;;;;;;;;;;14.63;49.88;97684.31;6153680;23;20299;-65
2023/03/18 18:33:14;;;;;;;;;;;;;;;14.55;50.04;97692.09;6154357;23;20375;-65
2023/03/18 18:35:40;;;;;;;;;;;;;;;14.40;50.23;97678.50;6153073;23;19915;-65
2023/03/18 18:38:06;;;;;;;;;;;;;;;14.38;50.71;97689.19;6153173;23;19936;-65
2023/03/18 18:40:31;;;;;;;;;;;;;;;14.33;51.34;97683.50;6127724;23;19967;-65
2023/03/18 18:42:56;;;;;;;;;;;;;;;14.27;51.81;97684.06;6154371;23;19908;-65
2023/03/18 18:45:22;;;;;;;;;;;;;;;14.24;52.40;97694.88;6127612;23;19959;-65
2023/03/18 18:47:47;;;;;;;;;;;;;;;14.18;52.61;97684.91;6154313;23;19908;-65
2023/03/18 18:50:14;;;;;;;;;;;;;;;14.13;52.59;97687.13;6153445;23;19931;-65
2023/03/18 18:52:40;;;;;;;;;;;;;;;14.06;52.70;97689.50;6152852;23;20145;-65
2023/03/18 18:55:05;;;;;;;;;;;;;;;14.05;52.62;97692.28;6152224;23;20280;-65
2023/03/18 18:57:31;;;;;;;;;;;;;;;14.02;52.62;97688.94;6153663;23;19909;-65
2023/03/18 18:59:56;;;;;;;;;;;;;;;14.00;52.21;97688.25;6124367;23;19948;-66
2023/03/18 19:02:32;;;;;;;;;;;;;;;14.00;52.96;97688.25;6149544;23;19971;-65
2023/03/18 19:04:58;;;;;;;;;;;;;;;13.97;52.83;97695.59;6151223;23;20252;-65
2023/03/18 19:07:24;;;;;;;;;;;;;;;13.95;52.79;97687.84;6153451;23;19919;-65
2023/03/18 19:09:49;;;;;;;;;;;;;;;13.93;52.92;97687.13;6150104;23;19987;-65
2023/03/18 19:12:14;;;;;;;;;;;;;;;13.91;53.24;97688.25;6149572;23;19909;-65
2023/03/18 19:14:40;;;;;;;;;;;;;;;13.88;53.57;97689.38;6148557;23;19999;-64
2023/03/18 19:17:05;;;;;;;;;;;;;;;13.86;53.55;97693.94;6150243;23;19912;-64
2023/03/18 19:19:31;;;;;;;;;;;;;;;13.83;53.85;97691.56;6126698;23;19909;-64
2023/03/18 19:21:57;;;;;;;;;;;;;;;13.77;54.68;97692.13;6124103;23;19935;-64
2023/03/18 19:24:25;;;;;;;;;;;;;;;13.73;55.13;97696.03;6124186;23;20333;-64
2023/03/18 19:26:52;;;;;;;;;;;;;;;13.68;55.87;97693.78;6150623;23;19909;-65
2023/03/18 19:29:17;;;;;;;;;;;;;;;13.65;55.96;97703.75;6123820;23;19936;-65
2023/03/18 19:31:43;;;;;;;;;;;;;;;13.61;55.95;97705.00;6150099;23;19913;-65
2023/03/18 19:34:17;;;;;;;;;;;;;;;13.56;56.24;97701.94;6124060;23;19983;-65
2023/03/18 19:36:43;;;;;;;;;;;;;;;13.50;55.47;97701.53;6149994;23;19912;-66
2023/03/18 19:39:11;;;;;;;;;;;;;;;13.48;55.28;97702.63;6125080;23;19983;-65
2023/03/18 19:41:36;;;;;;;;;;;;;;;13.44;54.96;97702.06;6103065;23;20040;-64
2023/03/18 19:44:06;;;;;;;;;;;;;;;13.42;54.71;97703.16;6127548;23;19940;-64
2023/03/18 19:46:37;;;;;;;;;;;;;;;13.36;54.67;97701.91;6127601;23;19909;-64
2023/03/18 19:49:18;;;;;;;;;;;;;;;13.29;54.37;97703.41;6128210;23;19915;-64
2023/03/18 19:51:43;;;;;;;;;;;;;;;13.24;53.77;97709.06;6153531;23;20363;-63
2023/03/18 19:54:17;;;;;;;;;;;;;;;13.19;53.92;97708.63;6128243;23;19909;-63
2023/03/18 19:56:43;;;;;;;;;;;;;;;13.14;53.88;97709.97;6127742;23;20400;-64
2023/03/18 19:59:08;;;;;;;;;;;;;;;13.10;54.61;97716.47;6127729;23;19947;-64
2023/03/18 20:01:33;;;;;;;;;;;;;;;13.07;54.69;97712.31;6102002;23;19916;-64
2023/03/18 20:03:59;;;;;;;;;;;;;;;13.02;54.64;97723.25;6127544;23;19916;-63
2023/03/18 20:06:25;;;;;;;;;;;;;;;12.95;54.94;97722.09;6154316;23;19932;-64
2023/03/18 20:08:50;;;;;;;;;;;;;;;12.89;55.28;97716.53;6126400;23;19915;-63